Time;durP1;ratioP1;P1;durP2;ratioP2;P2;SDS_P1;SDS_P2;PMS_P1;PMS_P2;Temp;Humidity;BMP_temperature;BMP_pressure;BME280_temperature;BME280_humidity;BME280_pressure;Samples;Min_cycle;Max_cycle;Signal;HPM_P1;HPM_P2
2022/05/04 00:01:34;;;;;;;2.40;2.30;;;19.40;42.80;;;;;;5076649;27;20225;-60
2022/05/04 00:03:59;;;;;;;2.10;2.00;;;19.40;42.80;;;;;;5080933;28;20220;-60
2022/05/04 00:06:27;;;;;;;2.20;2.00;;;19.40;42.80;;;;;;5081211;28;20747;-60
2022/05/04 00:08:52;;;;;;;2.20;2.10;;;19.40;42.80;;;;;;5081958;28;20218;-61
2022/05/04 00:11:18;;;;;;;2.23;2.13;;;19.40;42.80;;;;;;5080617;27;20973;-60
2022/05/04 00:13:43;;;;;;;2.00;1.90;;;19.40;42.80;;;;;;5081512;28;20225;-62
2022/05/04 00:16:09;;;;;;;2.30;2.10;;;19.40;42.80;;;;;;5080276;27;20689;-59
2022/05/04 00:18:35;;;;;;;1.87;1.77;;;19.40;42.80;;;;;;5086595;28;20218;-60
2022/05/04 00:21:00;;;;;;;1.70;1.60;;;19.40;42.80;;;;;;5086597;28;20690;-61
2022/05/04 00:23:26;;;;;;;2.13;2.03;;;19.40;42.80;;;;;;5087163;27;20240;-61
2022/05/04 00:25:52;;;;;;;2.10;2.00;;;19.40;42.80;;;;;;5083788;28;20244;-60
2022/05/04 00:28:18;;;;;;;2.10;2.00;;;19.40;42.80;;;;;;5082773;28;20473;-60
2022/05/04 00:30:44;;;;;;;2.00;1.90;;;19.40;42.80;;;;;;5082980;28;20242;-63
2022/05/04 00:33:10;;;;;;;2.00;1.90;;;19.40;42.80;;;;;;5084751;27;20221;-59
2022/05/04 00:35:36;;;;;;;2.40;2.30;;;19.40;42.80;;;;;;5083963;28;20477;-60
2022/05/04 00:38:02;;;;;;;2.10;2.00;;;19.40;42.80;;;;;;5079064;28;20487;-61
2022/05/04 00:40:28;;;;;;;1.93;1.83;;;19.40;42.80;;;;;;5084987;28;20420;-60
2022/05/04 00:42:53;;;;;;;2.20;2.10;;;19.40;42.80;;;;;;5085125;27;20217;-60
2022/05/04 00:45:19;;;;;;;2.00;1.90;;;19.40;42.80;;;;;;5084570;27;20259;-61
2022/05/04 00:47:45;;;;;;;2.10;2.00;;;19.40;42.80;;;;;;5084509;28;20233;-60
2022/05/04 00:50:10;;;;;;;1.97;1.87;;;19.40;42.80;;;;;;5082541;27;20229;-61
2022/05/04 00:52:40;;;;;;;1.80;1.70;;;19.40;42.80;;;;;;5083855;28;20338;-61
2022/05/04 00:55:07;;;;;;;1.80;1.70;;;19.40;42.90;;;;;;5080494;27;20224;-63
2022/05/04 01:00:20;;;;;;;1.90;1.80;;;19.40;42.80;;;;;;5083101;27;20438;-60
2022/05/04 01:02:46;;;;;;;1.73;1.63;;;19.40;42.80;;;;;;5084462;28;20420;-61
2022/05/04 01:05:12;;;;;;;2.00;1.90;;;19.40;43.60;;;;;;5078416;28;20222;-61
2022/05/04 01:07:39;;;;;;;1.80;1.70;;;19.40;42.80;;;;;;5081190;28;20236;-60
2022/05/04 01:10:06;;;;;;;2.03;1.93;;;19.40;42.80;;;;;;5079760;27;20587;-60
2022/05/04 01:12:32;;;;;;;2.00;1.90;;;19.40;42.90;;;;;;5083307;28;20431;-61
2022/05/04 01:14:58;;;;;;;4.37;1.90;;;19.40;42.80;;;;;;5082096;27;20408;-60
2022/05/04 01:17:24;;;;;;;1.80;1.70;;;19.40;42.80;;;;;;5078413;28;20599;-61
2022/05/04 01:19:50;;;;;;;2.10;2.00;;;19.40;42.80;;;;;;5081110;27;20433;-61
2022/05/04 01:22:15;;;;;;;1.83;1.73;;;19.40;42.90;;;;;;5082028;28;20444;-60
2022/05/04 01:24:41;;;;;;;1.70;1.60;;;19.40;42.80;;;;;;5081694;28;20217;-60
2022/05/04 01:27:12;;;;;;;1.90;1.80;;;19.40;42.90;;;;;;5082588;28;20220;-61
2022/05/04 01:29:38;;;;;;;1.90;1.80;;;19.40;42.90;;;;;;5081330;28;20229;-60
2022/05/04 01:32:04;;;;;;;2.20;2.10;;;19.40;42.90;;;;;;5080240;27;20543;-60
2022/05/04 01:34:30;;;;;;;1.97;1.77;;;19.40;42.90;;;;;;5076067;28;20412;-60
2022/05/04 01:36:56;;;;;;;1.67;1.57;;;19.40;42.90;;;;;;5081427;28;20794;-60
2022/05/04 01:39:21;;;;;;;2.00;1.90;;;19.40;42.90;;;;;;5078084;27;20221;-60
2022/05/04 01:42:05;;;;;;;3.57;1.93;;;19.40;42.90;;;;;;5075746;27;20226;-60
2022/05/04 01:44:32;;;;;;;1.80;1.70;;;19.40;42.90;;;;;;5067322;28;20897;-60
2022/05/04 01:46:59;;;;;;;1.87;1.77;;;19.40;43.00;;;;;;5060914;28;20978;-60
2022/05/04 01:49:25;;;;;;;2.00;1.90;;;19.40;42.90;;;;;;5079816;27;20458;-60
2022/05/04 01:51:50;;;;;;;1.87;1.77;;;19.40;43.00;;;;;;5080671;27;20459;-60
2022/05/04 01:54:16;;;;;;;1.90;1.80;;;19.40;43.00;;;;;;5081634;27;20271;-61
2022/05/04 01:56:41;;;;;;;1.77;1.67;;;19.40;43.00;;;;;;5079676;28;20224;-60
2022/05/04 01:59:07;;;;;;;1.80;1.70;;;19.40;43.00;;;;;;5078979;27;20231;-61
2022/05/04 02:01:33;;;;;;;1.60;1.50;;;19.40;43.00;;;;;;5080273;27;20264;-61
2022/05/04 02:03:59;;;;;;;1.57;1.47;;;19.30;42.90;;;;;;5086084;27;20244;-60
2022/05/04 02:06:25;;;;;;;2.07;1.87;;;19.40;43.00;;;;;;5079937;27;20442;-60
2022/05/04 02:08:52;;;;;;;2.00;1.83;;;19.40;43.00;;;;;;5082806;27;20454;-60
2022/05/04 02:11:17;;;;;;;1.73;1.63;;;19.30;42.90;;;;;;5079518;27;20452;-60
2022/05/04 02:13:43;;;;;;;1.70;1.60;;;19.40;43.00;;;;;;5079658;27;20489;-60
2022/05/04 02:16:09;;;;;;;1.73;1.63;;;19.40;43.00;;;;;;5079769;27;20216;-61
2022/05/04 02:18:35;;;;;;;1.67;1.57;;;19.30;42.90;;;;;;5080502;27;20249;-61
2022/05/04 02:21:00;;;;;;;1.90;1.80;;;19.40;43.00;;;;;;5113108;27;20442;-63
2022/05/04 02:23:26;;;;;;;1.60;1.50;;;19.30;42.90;;;;;;5083466;27;20229;-60
2022/05/04 02:25:52;;;;;;;1.80;1.70;;;19.30;42.90;;;;;;5077172;28;20209;-67
2022/05/04 02:28:18;;;;;;;1.70;1.60;;;19.30;42.90;;;;;;5077978;27;20227;-60
2022/05/04 02:30:44;;;;;;;1.73;1.63;;;19.40;43.00;;;;;;5079836;27;20225;-60
2022/05/04 02:33:10;;;;;;;2.13;1.77;;;19.30;42.90;;;;;;5081653;27;20454;-60
2022/05/04 02:38:21;;;;;;;1.80;1.70;;;19.30;42.90;;;;;;5078897;27;20908;-60
2022/05/04 02:40:47;;;;;;;2.00;1.90;;;19.30;42.90;;;;;;5075650;27;20425;-60
2022/05/04 02:43:13;;;;;;;1.87;1.77;;;19.30;43.00;;;;;;5079619;28;20957;-60
2022/05/04 02:45:39;;;;;;;1.70;1.60;;;19.30;43.00;;;;;;5080517;27;20428;-61
2022/05/04 02:48:05;;;;;;;2.00;1.90;;;19.40;43.00;;;;;;5081675;27;20249;-60
2022/05/04 02:50:30;;;;;;;1.83;1.73;;;19.30;42.90;;;;;;5078252;27;20359;-61
2022/05/04 02:52:56;;;;;;;1.80;1.70;;;19.30;42.90;;;;;;5080716;27;20452;-60
2022/05/04 02:55:22;;;;;;;1.70;1.60;;;19.30;42.90;;;;;;5085555;27;20229;-60
2022/05/04 02:57:47;;;;;;;1.77;1.67;;;19.30;42.90;;;;;;5080204;27;20225;-61
2022/05/04 03:00:13;;;;;;;2.00;1.90;;;19.30;43.00;;;;;;5082373;27;20289;-60
2022/05/04 03:02:39;;;;;;;1.63;1.53;;;19.30;42.90;;;;;;5077783;27;20747;-64
2022/05/04 03:05:07;;;;;;;1.90;1.80;;;19.30;42.90;;;;;;5083395;27;20451;-61
2022/05/04 03:07:33;;;;;;;1.60;1.50;;;19.30;42.90;;;;;;5082920;27;20213;-60
2022/05/04 03:09:59;;;;;;;1.70;1.60;;;19.30;43.00;;;;;;5079832;27;20590;-60
2022/05/04 03:12:25;;;;;;;1.77;1.67;;;19.30;43.00;;;;;;5078950;28;20887;-61
2022/05/04 03:14:51;;;;;;;1.60;1.50;;;19.30;43.10;;;;;;5078153;28;20673;-60
2022/05/04 03:17:18;;;;;;;1.70;1.60;;;19.30;43.00;;;;;;5080469;27;20462;-60
2022/05/04 03:19:44;;;;;;;1.60;1.50;;;19.30;42.90;;;;;;5079263;28;20537;-61
2022/05/04 03:22:10;;;;;;;1.80;1.70;;;19.30;43.00;;;;;;5080525;27;20451;-61
2022/05/04 03:24:36;;;;;;;1.67;1.57;;;19.30;42.90;;;;;;5080612;27;20421;-60
2022/05/04 03:27:02;;;;;;;1.60;1.50;;;19.30;43.00;;;;;;5079796;27;20473;-60
2022/05/04 03:29:28;;;;;;;1.63;1.53;;;19.30;43.00;;;;;;5081304;27;20229;-60
2022/05/04 03:31:53;;;;;;;1.63;1.53;;;19.30;43.00;;;;;;5082015;28;20230;-60
2022/05/04 03:34:19;;;;;;;1.80;1.70;;;19.30;43.00;;;;;;5082087;27;20441;-60
2022/05/04 03:36:45;;;;;;;1.63;1.53;;;19.30;43.00;;;;;;5079681;27;20666;-59
2022/05/04 03:39:11;;;;;;;1.60;1.50;;;19.30;43.00;;;;;;5082903;27;20296;-61
2022/05/04 03:41:38;;;;;;;1.80;1.70;;;19.30;43.00;;;;;;5081224;27;20213;-60
2022/05/04 03:44:03;;;;;;;1.63;1.53;;;19.30;43.00;;;;;;5076403;27;20287;-60
2022/05/04 03:46:49;;;;;;;1.70;1.60;;;19.30;43.00;;;;;;5078628;27;21452;-60
2022/05/04 03:49:16;;;;;;;1.80;1.70;;;19.30;43.00;;;;;;5077696;27;20230;-60
2022/05/04 03:51:43;;;;;;;1.77;1.67;;;19.30;43.00;;;;;;5074490;28;20457;-61
2022/05/04 03:54:09;;;;;;;1.57;1.47;;;19.30;43.00;;;;;;5082621;27;20473;-62
2022/05/04 03:56:36;;;;;;;1.80;1.70;;;19.30;43.00;;;;;;5078935;28;20682;-60
2022/05/04 03:59:03;;;;;;;1.83;1.73;;;19.30;43.00;;;;;;5076904;27;20475;-60
2022/05/04 04:01:29;;;;;;;1.90;1.80;;;19.30;43.00;;;;;;5076559;27;20508;-60
2022/05/04 04:03:55;;;;;;;1.70;1.60;;;19.30;42.90;;;;;;5091987;28;20943;-59
2022/05/04 04:06:21;;;;;;;1.70;1.60;;;19.30;42.90;;;;;;5065992;28;20267;-60
2022/05/04 04:08:47;;;;;;;1.80;1.70;;;19.30;42.90;;;;;;5059316;28;20230;-59
2022/05/04 04:11:13;;;;;;;1.80;1.70;;;19.30;42.90;;;;;;5055432;28;20771;-59
2022/05/04 04:13:39;;;;;;;1.83;1.73;;;19.40;43.00;;;;;;5058225;28;20451;-60
2022/05/04 04:16:06;;;;;;;1.60;1.50;;;19.40;42.80;;;;;;5059377;28;20210;-59
2022/05/04 04:18:31;;;;;;;2.47;1.83;;;19.40;42.80;;;;;;5059391;28;20218;-61
2022/05/04 04:23:41;;;;;;;1.77;1.67;;;19.50;42.70;;;;;;5058529;28;20292;-61
2022/05/04 04:26:08;;;;;;;1.60;1.50;;;19.50;42.70;;;;;;5060695;28;20926;-59
2022/05/04 04:28:35;;;;;;;2.00;1.90;;;19.50;42.60;;;;;;5057194;28;20308;-59
2022/05/04 04:31:02;;;;;;;2.13;2.03;;;19.50;42.60;;;;;;5057059;28;20456;-60
2022/05/04 04:33:29;;;;;;;1.57;1.47;;;19.50;42.60;;;;;;5059860;28;20435;-59
2022/05/04 04:35:59;;;;;;;1.90;1.80;;;19.60;42.70;;;;;;5057529;28;20508;-59
2022/05/04 04:38:28;;;;;;;2.10;2.00;;;19.60;42.70;;;;;;5058927;28;20530;-59
2022/05/04 04:40:55;;;;;;;1.70;1.60;;;19.60;42.70;;;;;;5062285;28;20535;-61
2022/05/04 04:43:20;;;;;;;2.03;1.93;;;19.60;42.70;;;;;;5060550;28;20418;-60
2022/05/04 04:45:47;;;;;;;1.70;1.60;;;19.60;42.70;;;;;;5059687;28;20501;-61
2022/05/04 04:48:17;;;;;;;1.93;1.73;;;19.60;42.70;;;;;;5057629;28;20226;-61
2022/05/04 04:50:46;;;;;;;1.80;1.70;;;19.50;42.70;;;;;;5061209;28;20433;-63
2022/05/04 04:53:13;;;;;;;1.60;1.47;;;19.60;42.70;;;;;;5061512;28;20449;-59
2022/05/04 04:55:42;;;;;;;2.10;2.00;;;19.50;42.70;;;;;;5063646;28;20461;-60
2022/05/04 04:58:08;;;;;;;1.27;1.17;;;19.50;42.60;;;;;;5059698;28;20417;-59
2022/05/04 05:00:34;;;;;;;2.20;2.00;;;19.50;42.70;;;;;;5060731;28;20440;-59
2022/05/04 05:03:00;;;;;;;1.70;1.60;;;19.50;42.70;;;;;;5062170;28;20219;-59
2022/05/04 05:05:26;;;;;;;1.90;1.80;;;19.50;42.70;;;;;;5066964;28;20993;-60
2022/05/04 05:07:52;;;;;;;1.60;1.50;;;19.50;42.70;;;;;;5060338;28;20229;-60
2022/05/04 05:10:18;;;;;;;1.60;1.50;;;19.50;42.70;;;;;;5059730;28;20234;-60
2022/05/04 05:12:43;;;;;;;5.83;1.80;;;19.50;42.70;;;;;;5059677;28;21197;-60
2022/05/04 05:17:53;;;;;;;2.10;1.80;;;19.50;42.70;;;;;;5063883;28;20298;-61
2022/05/04 05:20:19;;;;;;;2.00;1.73;;;19.50;42.80;;;;;;5063992;28;24867;-61
2022/05/04 05:22:45;;;;;;;2.10;1.80;;;19.50;42.80;;;;;;5059304;28;20713;-62
2022/05/04 05:25:11;;;;;;;4.47;1.93;;;19.50;42.70;;;;;;5063495;28;20236;-60
2022/05/04 05:27:36;;;;;;;3.70;1.90;;;19.50;42.80;;;;;;5064482;28;20612;-60
2022/05/04 05:30:03;;;;;;;2.00;1.90;;;19.50;42.70;;;;;;5061841;28;20309;-64
2022/05/04 05:32:29;;;;;;;1.50;1.40;;;19.50;42.80;;;;;;5064817;28;20217;-60
2022/05/04 05:34:54;;;;;;;1.50;1.40;;;19.50;42.80;;;;;;5063279;28;20455;-60
2022/05/04 05:37:20;;;;;;;2.23;2.03;;;19.50;42.80;;;;;;5060943;28;20218;-59
2022/05/04 05:39:46;;;;;;;3.63;2.13;;;19.50;42.70;;;;;;5064048;28;20595;-59
2022/05/04 05:42:12;;;;;;;1.80;1.70;;;19.50;43.50;;;;;;5057900;28;20218;-58
2022/05/04 05:44:38;;;;;;;4.97;2.33;;;19.50;42.80;;;;;;5062133;28;20444;-61
2022/05/04 05:47:04;;;;;;;2.43;2.20;;;19.50;42.80;;;;;;5063487;28;20214;-59
2022/05/04 05:49:30;;;;;;;2.60;2.40;;;19.50;42.80;;;;;;5068371;28;20299;-59
2022/05/04 05:51:57;;;;;;;2.20;2.00;;;19.50;42.80;;;;;;5065646;28;20475;-58
2022/05/04 05:54:22;;;;;;;2.40;2.07;;;19.50;42.80;;;;;;5060313;28;20221;-58
2022/05/04 05:56:48;;;;;;;3.60;2.20;;;19.50;43.60;;;;;;5061287;28;20925;-59
2022/05/04 05:59:13;;;;;;;2.27;2.10;;;19.40;42.60;;;;;;5059641;28;20244;-58
2022/05/04 06:01:39;;;;;;;2.30;2.10;;;19.40;42.80;;;;;;5058599;28;20218;-61
2022/05/04 06:04:05;;;;;;;2.90;2.07;;;19.40;42.90;;;;;;5060668;28;20211;-60
2022/05/04 06:06:31;;;;;;;2.70;1.90;;;19.40;42.60;;;;;;5059312;28;20223;-59
2022/05/04 06:08:57;;;;;;;2.27;2.00;;;19.40;42.60;;;;;;5060256;28;20432;-58
2022/05/04 06:11:23;;;;;;;2.77;1.93;;;19.40;42.60;;;;;;5062221;28;20229;-58
2022/05/04 06:13:53;;;;;;;2.40;2.20;;;19.40;42.50;;;;;;5059892;28;20301;-59
2022/05/04 06:16:19;;;;;;;2.33;2.13;;;19.40;42.50;;;;;;5062393;28;20271;-58
2022/05/04 06:18:45;;;;;;;3.17;2.00;;;19.40;42.50;;;;;;5004631;28;20458;-58
2022/05/04 06:21:10;;;;;;;2.40;2.30;;;19.50;42.50;;;;;;5080528;28;20695;-60
2022/05/04 06:23:36;;;;;;;2.07;1.97;;;19.40;42.40;;;;;;5075732;28;20222;-59
2022/05/04 06:26:02;;;;;;;2.00;1.90;;;19.50;42.50;;;;;;5079212;27;20209;-59
2022/05/04 06:28:27;;;;;;;2.60;2.40;;;19.40;42.40;;;;;;5078699;27;20267;-58
2022/05/04 06:36:21;;;;;;;2.30;2.10;;;19.40;42.40;;;;;;5079011;28;20427;-59
2022/05/04 06:38:47;;;;;;;2.63;1.87;;;19.50;42.50;;;;;;5076069;27;20413;-59
2022/05/04 06:41:13;;;;;;;2.53;2.33;;;19.40;42.40;;;;;;5080624;28;20221;-59
2022/05/04 06:43:39;;;;;;;2.27;2.07;;;19.40;42.30;;;;;;5079631;27;20824;-59
2022/05/04 06:46:05;;;;;;;7.20;2.47;;;19.40;42.40;;;;;;5077820;28;20210;-58
2022/05/04 06:48:31;;;;;;;2.77;2.10;;;19.40;42.30;;;;;;5086635;27;20456;-59
2022/05/04 06:50:56;;;;;;;2.63;2.20;;;19.40;42.30;;;;;;5081363;28;20421;-58
2022/05/04 06:53:22;;;;;;;2.47;2.27;;;19.50;42.40;;;;;;5081712;28;20216;-58
2022/05/04 06:55:48;;;;;;;2.20;2.00;;;19.50;42.30;;;;;;5076533;27;20216;-59
2022/05/04 06:58:13;;;;;;;4.10;2.13;;;19.40;42.30;;;;;;5077142;28;20252;-60
2022/05/04 07:00:39;;;;;;;3.83;2.20;;;19.40;42.30;;;;;;5075833;28;20260;-60
2022/05/04 07:03:04;;;;;;;3.63;2.00;;;19.40;42.30;;;;;;5078958;27;20646;-58
2022/05/04 07:05:30;;;;;;;2.27;2.10;;;19.50;42.30;;;;;;5078048;28;20275;-60
2022/05/04 07:07:55;;;;;;;2.30;2.10;;;19.40;42.30;;;;;;5077412;27;20224;-59
2022/05/04 07:10:21;;;;;;;2.10;1.90;;;19.40;42.30;;;;;;5081919;28;20274;-59
2022/05/04 07:12:48;;;;;;;2.20;2.07;;;19.40;42.30;;;;;;5081191;27;20262;-58
2022/05/04 07:15:14;;;;;;;3.50;2.70;;;19.40;42.20;;;;;;5077264;28;20219;-59
2022/05/04 07:17:40;;;;;;;3.40;2.27;;;19.40;42.30;;;;;;5080652;28;21128;-58
2022/05/04 07:20:06;;;;;;;4.83;2.10;;;19.50;42.30;;;;;;5081572;28;20243;-59
2022/05/04 07:22:32;;;;;;;2.87;2.67;;;19.40;42.30;;;;;;5076519;28;20220;-59
2022/05/04 07:24:57;;;;;;;2.60;2.00;;;19.40;42.30;;;;;;5083432;28;20450;-58
2022/05/04 07:27:23;;;;;;;3.33;1.90;;;19.40;42.20;;;;;;5079738;28;20224;-58
2022/05/04 07:29:48;;;;;;;2.63;2.40;;;19.40;42.20;;;;;;5079488;28;20237;-58
2022/05/04 07:32:14;;;;;;;3.37;2.00;;;19.40;42.30;;;;;;5081183;28;20221;-59
2022/05/04 07:34:40;;;;;;;2.30;1.97;;;19.40;42.20;;;;;;5077263;27;20828;-58
2022/05/04 07:37:06;;;;;;;2.40;2.20;;;19.40;42.30;;;;;;5074810;27;20271;-60
2022/05/04 07:42:24;;;;;;;2.77;2.20;;;19.40;42.30;;;;;;5077302;28;20355;-60
2022/05/04 07:44:57;;;;;;;2.70;2.33;;;19.40;42.20;;;;;;5076967;28;20538;-58
2022/05/04 07:47:23;;;;;;;2.03;1.93;;;19.40;42.30;;;;;;5080827;27;20423;-59
2022/05/04 07:49:49;;;;;;;3.87;2.37;;;19.40;42.30;;;;;;5076514;27;20874;-59
2022/05/04 07:52:15;;;;;;;2.60;2.40;;;19.40;42.30;;;;;;5079396;28;20450;-59
2022/05/04 07:54:41;;;;;;;2.20;2.00;;;19.40;42.30;;;;;;5077752;27;20222;-60
2022/05/04 07:57:08;;;;;;;2.60;1.80;;;19.40;42.30;;;;;;5079483;28;21029;-59
2022/05/04 07:59:33;;;;;;;3.37;2.30;;;19.50;42.30;;;;;;5077944;28;20213;-59
2022/05/04 08:04:43;;;;;;;2.20;2.03;;;19.40;42.30;;;;;;5078973;28;20275;-58
2022/05/04 08:07:09;;;;;;;4.50;2.10;;;19.40;42.20;;;;;;5080448;27;20855;-58
2022/05/04 08:09:36;;;;;;;2.40;2.30;;;19.40;42.20;;;;;;5078689;28;20639;-59
2022/05/04 08:12:04;;;;;;;2.20;2.07;;;19.40;42.20;;;;;;5077725;27;20241;-59
2022/05/04 08:14:29;;;;;;;3.13;2.10;;;19.50;42.30;;;;;;5077364;27;20750;-59
2022/05/04 08:16:55;;;;;;;3.10;2.10;;;19.50;42.30;;;;;;5077958;27;20498;-58
2022/05/04 08:19:20;;;;;;;2.10;2.00;;;19.50;42.30;;;;;;5075711;28;20220;-59
2022/05/04 08:21:46;;;;;;;1.90;1.80;;;19.50;42.30;;;;;;5077078;28;20601;-59
2022/05/04 08:24:12;;;;;;;2.20;2.10;;;19.40;42.20;;;;;;5075351;27;20213;-58
2022/05/04 08:26:37;;;;;;;2.70;2.60;;;19.50;42.30;;;;;;5080291;27;20217;-60
2022/05/04 08:29:03;;;;;;;4.10;2.10;;;19.50;42.30;;;;;;5081069;27;20254;-59
2022/05/04 08:31:29;;;;;;;2.50;2.30;;;19.50;42.30;;;;;;5082850;27;20213;-59
2022/05/04 08:33:55;;;;;;;2.30;2.10;;;19.50;42.30;;;;;;5083454;27;20521;-59
2022/05/04 08:36:21;;;;;;;2.30;2.20;;;19.50;42.30;;;;;;5084965;27;20585;-59
2022/05/04 08:38:46;;;;;;;1.93;1.83;;;19.50;42.30;;;;;;5080999;27;20245;-59
2022/05/04 08:41:12;;;;;;;1.80;1.70;;;19.50;42.30;;;;;;5083748;28;20245;-58
2022/05/04 08:43:39;;;;;;;2.57;2.17;;;19.50;42.30;;;;;;5079631;27;20228;-59
2022/05/04 08:46:05;;;;;;;1.90;1.77;;;19.50;42.30;;;;;;5081340;27;20217;-59
2022/05/04 08:48:32;;;;;;;2.57;2.47;;;19.50;42.30;;;;;;5083850;27;20473;-60
2022/05/04 08:51:04;;;;;;;2.23;2.03;;;19.50;42.40;;;;;;5082687;28;20504;-59
2022/05/04 08:53:30;;;;;;;2.60;2.40;;;19.50;43.10;;;;;;5078444;28;20413;-59
2022/05/04 08:55:57;;;;;;;1.83;1.73;;;19.50;42.30;;;;;;5081907;28;20437;-59
2022/05/04 08:58:22;;;;;;;2.50;2.03;;;19.40;42.30;;;;;;5079740;28;20435;-58
2022/05/04 09:00:48;;;;;;;2.00;1.80;;;19.50;42.30;;;;;;5083177;27;20427;-58
2022/05/04 09:03:14;;;;;;;2.37;2.27;;;19.50;42.30;;;;;;5080947;27;20307;-59
2022/05/04 09:05:45;;;;;;;2.40;2.30;;;19.50;42.30;;;;;;5078923;27;20244;-59
2022/05/04 09:08:10;;;;;;;5.33;2.37;;;19.50;42.40;;;;;;5082265;27;20217;-58
2022/05/04 09:10:40;;;;;;;2.00;1.90;;;19.50;42.40;;;;;;5080482;27;20507;-60
2022/05/04 09:13:07;;;;;;;2.70;2.10;;;19.50;42.40;;;;;;5078975;27;20257;-60
2022/05/04 09:15:38;;;;;;;2.27;2.17;;;19.50;42.30;;;;;;5080018;28;20435;-59
2022/05/04 09:18:04;;;;;;;2.40;2.20;;;19.40;42.30;;;;;;5080042;28;20429;-59
2022/05/04 09:23:16;;;;;;;2.10;2.00;;;19.50;42.30;;;;;;5080248;28;21006;-59
2022/05/04 09:25:41;;;;;;;2.40;2.20;;;19.50;43.10;;;;;;5083217;27;20503;-59
2022/05/04 09:28:12;;;;;;;2.20;2.10;;;19.50;42.30;;;;;;5082943;27;20231;-59
2022/05/04 09:30:52;;;;;;;2.40;2.30;;;19.50;42.30;;;;;;5079122;27;20229;-59
2022/05/04 09:33:26;;;;;;;2.00;1.80;;;19.50;42.30;;;;;;5078642;27;20438;-59
2022/05/04 09:35:52;;;;;;;3.13;2.50;;;19.50;42.40;;;;;;5077970;28;20424;-60
2022/05/04 09:46:46;;;;;;;2.90;2.40;;;19.50;42.40;;;;;;5058116;28;20448;-59
2022/05/04 09:49:33;;;;;;;2.30;2.10;;;19.40;42.30;;;;;;5060623;28;20433;-59
2022/05/04 09:52:04;;;;;;;2.30;2.20;;;19.50;42.50;;;;;;5064603;28;21173;-59
2022/05/04 09:54:30;;;;;;;2.30;2.20;;;19.50;42.50;;;;;;5060891;28;20409;-59
2022/05/04 09:57:00;;;;;;;2.23;2.00;;;19.50;42.50;;;;;;5057913;28;20819;-60
2022/05/04 09:59:29;;;;;;;2.47;2.27;;;19.50;42.40;;;;;;5060031;28;20221;-60
2022/05/04 10:01:55;;;;;;;2.30;2.20;;;19.50;42.40;;;;;;5059162;28;20450;-58
2022/05/04 10:04:23;;;;;;;2.50;2.40;;;19.50;42.40;;;;;;5058595;28;20433;-59
2022/05/04 10:06:53;;;;;;;2.27;2.13;;;19.50;42.40;;;;;;5059811;28;20450;-59
2022/05/04 10:09:20;;;;;;;2.10;2.00;;;19.50;42.30;;;;;;5063386;28;20828;-59
2022/05/04 10:11:46;;;;;;;2.40;2.20;;;19.50;42.40;;;;;;5058255;28;20423;-59
2022/05/04 10:14:15;;;;;;;2.70;2.50;;;19.50;42.40;;;;;;5059411;28;20421;-59
2022/05/04 10:16:52;;;;;;;2.40;2.20;;;19.50;42.30;;;;;;5060983;28;20961;-59
2022/05/04 10:19:33;;;;;;;2.23;2.07;;;19.50;42.30;;;;;;5056756;28;20484;-59
2022/05/04 10:22:00;;;;;;;2.10;2.00;;;19.50;42.30;;;;;;5063738;28;20832;-59
2022/05/04 10:24:29;;;;;;;2.23;2.10;;;19.50;42.40;;;;;;5064776;28;20467;-59
2022/05/04 10:27:14;;;;;;;2.70;2.50;;;19.50;42.50;;;;;;5060718;28;20446;-59
2022/05/04 10:32:38;;;;;;;2.53;2.33;;;19.50;42.50;;;;;;5058603;28;20456;-59
2022/05/04 10:35:38;;;;;;;2.83;2.67;;;19.50;42.40;;;;;;5056182;28;20418;-60
2022/05/04 10:38:18;;;;;;;3.80;2.03;;;19.40;42.40;;;;;;5061129;28;20421;-59
2022/05/04 10:40:55;;;;;;;2.30;2.20;;;19.40;42.40;;;;;;5061010;28;20482;-59
2022/05/04 10:43:45;;;;;;;2.70;2.50;;;19.40;42.40;;;;;;5056553;28;20427;-60
2022/05/04 10:46:20;;;;;;;2.90;2.70;;;19.40;42.40;;;;;;5063908;28;20457;-59
2022/05/04 10:49:04;;;;;;;2.53;2.37;;;19.50;42.50;;;;;;5057638;28;20436;-59
2022/05/04 10:51:33;;;;;;;3.10;2.80;;;19.40;42.40;;;;;;5056823;28;20422;-61
2022/05/04 10:54:08;;;;;;;2.80;2.60;;;19.40;42.40;;;;;;5057879;28;20427;-61
2022/05/04 10:56:41;;;;;;;2.50;2.30;;;19.40;42.50;;;;;;5056923;28;20447;-59
2022/05/04 10:59:07;;;;;;;3.47;2.70;;;19.40;42.50;;;;;;5060812;28;20422;-58
2022/05/04 11:01:38;;;;;;;3.33;3.13;;;19.40;42.50;;;;;;5061179;28;20492;-58
2022/05/04 11:04:05;;;;;;;3.40;3.10;;;19.40;42.50;;;;;;5059341;28;20921;-59
2022/05/04 11:06:33;;;;;;;2.50;2.27;;;19.40;42.50;;;;;;5059051;28;20828;-59
2022/05/04 11:09:08;;;;;;;2.50;2.30;;;19.40;42.50;;;;;;5061497;28;20447;-59
2022/05/04 11:11:35;;;;;;;3.13;2.80;;;19.40;42.50;;;;;;5055570;28;20951;-59
2022/05/04 11:14:02;;;;;;;4.23;2.90;;;19.40;42.60;;;;;;5059805;28;20447;-59
2022/05/04 11:16:28;;;;;;;3.10;2.77;;;19.40;42.60;;;;;;5058804;28;20792;-59
2022/05/04 11:18:55;;;;;;;2.90;2.70;;;19.40;42.50;;;;;;5059044;28;20446;-58
2022/05/04 11:21:21;;;;;;;2.70;2.60;;;19.40;42.50;;;;;;5054905;28;20426;-59
2022/05/04 11:23:51;;;;;;;3.40;3.20;;;19.40;42.60;;;;;;5055065;28;20467;-59
2022/05/04 11:26:19;;;;;;;3.30;3.10;;;19.40;42.60;;;;;;5054805;28;20911;-59
2022/05/04 11:28:46;;;;;;;3.90;3.03;;;19.40;42.60;;;;;;5057459;28;20488;-59
2022/05/04 11:31:12;;;;;;;3.53;3.23;;;19.40;42.60;;;;;;5053504;28;20968;-59
2022/05/04 11:33:40;;;;;;;3.10;2.90;;;19.40;42.60;;;;;;5057854;28;20428;-59
2022/05/04 11:36:06;;;;;;;3.20;3.00;;;19.40;42.50;;;;;;5059667;28;20414;-59
2022/05/04 11:38:31;;;;;;;3.20;3.00;;;19.40;42.60;;;;;;5056115;28;20533;-59
2022/05/04 11:40:57;;;;;;;3.13;2.93;;;19.40;42.60;;;;;;5060605;28;20220;-60
2022/05/04 11:43:27;;;;;;;3.47;2.97;;;19.40;42.60;;;;;;5057024;28;20222;-59
2022/05/04 11:45:54;;;;;;;3.43;3.13;;;19.40;42.60;;;;;;5056114;28;20668;-59
2022/05/04 11:48:21;;;;;;;3.07;2.87;;;19.40;42.60;;;;;;5058167;28;20518;-59
2022/05/04 11:50:47;;;;;;;3.50;3.30;;;19.40;42.60;;;;;;5062207;28;20441;-59
2022/05/04 11:53:13;;;;;;;3.27;3.07;;;19.40;42.60;;;;;;5058846;28;20417;-59
2022/05/04 11:55:39;;;;;;;3.40;3.20;;;19.40;43.40;;;;;;5057266;28;20455;-59
2022/05/04 11:58:09;;;;;;;3.37;3.17;;;19.40;42.60;;;;;;5062566;28;20222;-58
2022/05/04 12:00:35;;;;;;;3.07;2.87;;;19.40;42.70;;;;;;5055328;28;20229;-58
2022/05/04 12:03:02;;;;;;;3.50;3.20;;;19.40;42.60;;;;;;5061016;28;20421;-59
2022/05/04 12:05:28;;;;;;;4.43;3.60;;;19.40;42.60;;;;;;5063225;28;20217;-58
2022/05/04 12:07:54;;;;;;;3.30;3.10;;;19.40;42.60;;;;;;5056690;28;20441;-59
2022/05/04 12:10:21;;;;;;;4.10;2.90;;;19.40;42.60;;;;;;5061785;28;21678;-58
2022/05/04 12:12:46;;;;;;;3.40;3.20;;;19.40;42.60;;;;;;5062797;28;20232;-58
2022/05/04 12:15:12;;;;;;;3.53;3.20;;;19.40;42.70;;;;;;5061460;28;20411;-58
2022/05/04 12:17:38;;;;;;;3.77;3.50;;;19.40;42.70;;;;;;5059908;28;20280;-59
2022/05/04 12:20:04;;;;;;;3.33;3.13;;;19.40;42.70;;;;;;5060912;28;20213;-59
2022/05/04 12:22:30;;;;;;;3.03;2.83;;;19.40;42.70;;;;;;5066005;28;20252;-61
2022/05/04 12:24:56;;;;;;;3.77;3.47;;;19.40;42.70;;;;;;5062353;28;20417;-59
2022/05/04 12:27:22;;;;;;;4.47;4.20;;;19.40;42.70;;;;;;5063475;28;20229;-59
2022/05/04 12:35:16;;;;;;;3.40;3.20;;;19.40;42.70;;;;;;5064205;28;20463;-59
2022/05/04 12:37:41;;;;;;;3.67;3.37;;;19.40;42.80;;;;;;5063131;28;20906;-60
2022/05/04 12:40:08;;;;;;;3.60;3.30;;;19.40;42.70;;;;;;5061874;28;20646;-59
2022/05/04 12:42:33;;;;;;;3.30;3.10;;;19.40;42.70;;;;;;5060094;28;20225;-58
2022/05/04 12:44:59;;;;;;;3.70;3.40;;;19.40;42.80;;;;;;5063298;28;20421;-59
2022/05/04 12:47:25;;;;;;;3.90;3.70;;;19.40;42.80;;;;;;5061890;28;20229;-59
2022/05/04 12:49:53;;;;;;;3.47;3.23;;;19.40;42.80;;;;;;5061657;28;20471;-59
2022/05/04 12:52:19;;;;;;;3.07;2.87;;;19.40;42.80;;;;;;5062599;28;20683;-59
2022/05/04 12:54:45;;;;;;;3.40;3.20;;;19.40;42.80;;;;;;5064414;28;20466;-59
2022/05/04 12:57:11;;;;;;;3.53;3.23;;;19.40;42.80;;;;;;5057932;28;20422;-59
2022/05/04 12:59:38;;;;;;;3.70;3.43;;;19.40;42.70;;;;;;5095951;28;20958;-57
2022/05/04 13:02:03;;;;;;;3.53;3.33;;;19.40;42.80;;;;;;5064438;28;20812;-59
2022/05/04 13:04:29;;;;;;;3.23;3.03;;;19.40;42.80;;;;;;5060915;28;20425;-60
2022/05/04 13:06:55;;;;;;;3.57;3.27;;;19.40;42.80;;;;;;5063033;28;20316;-62
2022/05/04 13:09:20;;;;;;;3.63;3.43;;;19.40;42.70;;;;;;5060798;28;20646;-60
2022/05/04 13:11:46;;;;;;;3.83;3.63;;;19.40;42.80;;;;;;5061211;28;20625;-60
2022/05/04 13:14:12;;;;;;;3.73;3.50;;;19.40;42.80;;;;;;5061979;28;20596;-60
2022/05/04 13:16:37;;;;;;;3.57;3.37;;;19.40;42.80;;;;;;5057844;28;20246;-60
2022/05/04 13:19:05;;;;;;;3.90;3.60;;;19.40;42.80;;;;;;5060596;28;20763;-59
2022/05/04 13:21:31;;;;;;;3.90;3.70;;;19.40;42.80;;;;;;5056510;28;20218;-60
2022/05/04 13:23:57;;;;;;;4.00;3.60;;;19.40;42.80;;;;;;5060554;28;20438;-60
2022/05/04 13:26:22;;;;;;;3.73;3.43;;;19.40;42.80;;;;;;5059861;28;20479;-60
2022/05/04 13:28:48;;;;;;;4.13;3.83;;;19.30;42.80;;;;;;5059368;28;20240;-61